sensor_id;sensor_type;location;lat;lon;timestamp;temperature;humidity
18575;DHT22;9417;16.484;102.872;2023-03-02T00:01:10;19.50;85.20
18575;DHT22;9417;16.484;102.872;2023-03-02T00:03:18;19.50;85.40
18575;DHT22;9417;16.484;102.872;2023-03-02T00:05:25;19.50;85.50
18575;DHT22;9417;16.484;102.872;2023-03-02T00:07:34;19.60;85.90
18575;DHT22;9417;16.484;102.872;2023-03-02T00:09:42;19.60;86.30
18575;DHT22;9417;16.484;102.872;2023-03-02T00:11:52;19.60;86.20
18575;DHT22;9417;16.484;102.872;2023-03-02T00:13:59;19.60;86.30
18575;DHT22;9417;16.484;102.872;2023-03-02T00:16:07;19.70;86.50
18575;DHT22;9417;16.484;102.872;2023-03-02T00:18:14;19.70;86.60
18575;DHT22;9417;16.484;102.872;2023-03-02T00:20:21;19.70;86.70
18575;DHT22;9417;16.484;102.872;2023-03-02T00:22:28;19.80;86.50
18575;DHT22;9417;16.484;102.872;2023-03-02T00:24:35;19.90;86.70
18575;DHT22;9417;16.484;102.872;2023-03-02T00:26:42;20.00;86.30
18575;DHT22;9417;16.484;102.872;2023-03-02T00:28:51;20.00;86.40
18575;DHT22;9417;16.484;102.872;2023-03-02T00:30:58;20.10;86.50
18575;DHT22;9417;16.484;102.872;2023-03-02T00:33:05;20.10;87.10
18575;DHT22;9417;16.484;102.872;2023-03-02T00:35:12;20.10;87.30
18575;DHT22;9417;16.484;102.872;2023-03-02T00:37:19;20.20;87.70
18575;DHT22;9417;16.484;102.872;2023-03-02T00:39:26;20.20;87.30
18575;DHT22;9417;16.484;102.872;2023-03-02T00:41:34;20.30;87.10
18575;DHT22;9417;16.484;102.872;2023-03-02T00:43:41;20.30;86.30
18575;DHT22;9417;16.484;102.872;2023-03-02T00:45:50;20.40;87.00
18575;DHT22;9417;16.484;102.872;2023-03-02T00:47:57;20.40;86.50
18575;DHT22;9417;16.484;102.872;2023-03-02T00:50:05;20.40;86.30
18575;DHT22;9417;16.484;102.872;2023-03-02T00:52:13;20.50;86.30
18575;DHT22;9417;16.484;102.872;2023-03-02T00:54:20;20.50;86.50
18575;DHT22;9417;16.484;102.872;2023-03-02T00:56:27;20.60;86.20
18575;DHT22;9417;16.484;102.872;2023-03-02T00:58:35;20.60;85.90
18575;DHT22;9417;16.484;102.872;2023-03-02T01:00:43;20.70;85.60
18575;DHT22;9417;16.484;102.872;2023-03-02T01:02:53;20.70;84.30
18575;DHT22;9417;16.484;102.872;2023-03-02T01:05:00;20.80;83.80
18575;DHT22;9417;16.484;102.872;2023-03-02T01:07:10;20.80;82.60
18575;DHT22;9417;16.484;102.872;2023-03-02T01:09:17;20.90;83.40
18575;DHT22;9417;16.484;102.872;2023-03-02T01:11:24;21.00;83.30
18575;DHT22;9417;16.484;102.872;2023-03-02T01:13:31;21.00;82.50
18575;DHT22;9417;16.484;102.872;2023-03-02T01:15:40;21.00;81.80
18575;DHT22;9417;16.484;102.872;2023-03-02T01:17:48;21.10;82.20
18575;DHT22;9417;16.484;102.872;2023-03-02T01:19:57;21.10;81.80
18575;DHT22;9417;16.484;102.872;2023-03-02T01:22:04;21.20;81.60
18575;DHT22;9417;16.484;102.872;2023-03-02T01:24:11;21.30;81.10
18575;DHT22;9417;16.484;102.872;2023-03-02T01:26:19;21.30;80.70
18575;DHT22;9417;16.484;102.872;2023-03-02T01:28:26;21.50;80.80
18575;DHT22;9417;16.484;102.872;2023-03-02T01:30:33;21.50;80.20
18575;DHT22;9417;16.484;102.872;2023-03-02T01:32:40;21.60;79.30
18575;DHT22;9417;16.484;102.872;2023-03-02T01:34:48;21.60;79.40
18575;DHT22;9417;16.484;102.872;2023-03-02T01:36:57;21.70;78.30
18575;DHT22;9417;16.484;102.872;2023-03-02T01:39:04;21.80;77.00
18575;DHT22;9417;16.484;102.872;2023-03-02T01:41:11;21.80;77.10
18575;DHT22;9417;16.484;102.872;2023-03-02T01:43:19;21.90;77.90
18575;DHT22;9417;16.484;102.872;2023-03-02T01:45:45;21.90;77.50
18575;DHT22;9417;16.484;102.872;2023-03-02T01:47:56;22.00;76.80
18575;DHT22;9417;16.484;102.872;2023-03-02T01:50:06;22.10;76.20
18575;DHT22;9417;16.484;102.872;2023-03-02T01:52:23;22.20;75.80
18575;DHT22;9417;16.484;102.872;2023-03-02T01:54:31;22.30;75.20
18575;DHT22;9417;16.484;102.872;2023-03-02T01:56:40;22.40;75.20
18575;DHT22;9417;16.484;102.872;2023-03-02T01:58:49;22.40;73.50
18575;DHT22;9417;16.484;102.872;2023-03-02T02:00:57;22.40;73.50
18575;DHT22;9417;16.484;102.872;2023-03-02T02:03:07;22.40;74.10
18575;DHT22;9417;16.484;102.872;2023-03-02T02:05:21;22.50;73.50
18575;DHT22;9417;16.484;102.872;2023-03-02T02:07:32;22.60;72.50
18575;DHT22;9417;16.484;102.872;2023-03-02T02:09:40;22.60;72.70
18575;DHT22;9417;16.484;102.872;2023-03-02T02:11:49;22.70;72.70
18575;DHT22;9417;16.484;102.872;2023-03-02T02:13:58;22.70;72.00
18575;DHT22;9417;16.484;102.872;2023-03-02T02:16:06;22.70;71.60
18575;DHT22;9417;16.484;102.872;2023-03-02T02:18:13;22.80;71.40
18575;DHT22;9417;16.484;102.872;2023-03-02T02:20:25;22.80;71.70
18575;DHT22;9417;16.484;102.872;2023-03-02T02:22:43;23.00;72.10
18575;DHT22;9417;16.484;102.872;2023-03-02T02:24:56;23.10;70.80
18575;DHT22;9417;16.484;102.872;2023-03-02T02:27:05;23.20;71.10
18575;DHT22;9417;16.484;102.872;2023-03-02T02:29:15;23.20;71.40
18575;DHT22;9417;16.484;102.872;2023-03-02T02:31:31;23.30;68.60
18575;DHT22;9417;16.484;102.872;2023-03-02T02:33:42;23.40;69.50
18575;DHT22;9417;16.484;102.872;2023-03-02T02:35:54;23.40;69.70
18575;DHT22;9417;16.484;102.872;2023-03-02T02:38:05;23.50;69.70
18575;DHT22;9417;16.484;102.872;2023-03-02T02:40:16;23.60;67.90
18575;DHT22;9417;16.484;102.872;2023-03-02T02:42:28;23.70;67.70
18575;DHT22;9417;16.484;102.872;2023-03-02T02:44:36;23.70;67.80
18575;DHT22;9417;16.484;102.872;2023-03-02T02:46:43;23.80;66.50
18575;DHT22;9417;16.484;102.872;2023-03-02T02:48:51;23.80;67.00
18575;DHT22;9417;16.484;102.872;2023-03-02T02:51:00;23.90;66.30
18575;DHT22;9417;16.484;102.872;2023-03-02T02:53:12;24.00;66.00
18575;DHT22;9417;16.484;102.872;2023-03-02T02:55:22;24.10;64.60
18575;DHT22;9417;16.484;102.872;2023-03-02T02:57:33;24.20;64.00
18575;DHT22;9417;16.484;102.872;2023-03-02T02:59:44;24.30;64.00
18575;DHT22;9417;16.484;102.872;2023-03-02T03:01:52;24.40;63.30
18575;DHT22;9417;16.484;102.872;2023-03-02T03:04:01;24.40;62.80
18575;DHT22;9417;16.484;102.872;2023-03-02T03:06:16;24.40;62.70
18575;DHT22;9417;16.484;102.872;2023-03-02T03:08:50;24.50;63.10
18575;DHT22;9417;16.484;102.872;2023-03-02T03:11:03;24.50;62.30
18575;DHT22;9417;16.484;102.872;2023-03-02T03:13:12;24.60;63.30
18575;DHT22;9417;16.484;102.872;2023-03-02T03:15:19;24.70;63.30
18575;DHT22;9417;16.484;102.872;2023-03-02T03:17:27;24.90;62.60
18575;DHT22;9417;16.484;102.872;2023-03-02T03:19:37;25.10;61.80
18575;DHT22;9417;16.484;102.872;2023-03-02T03:21:44;25.20;60.30
18575;DHT22;9417;16.484;102.872;2023-03-02T03:23:54;25.30;57.20
18575;DHT22;9417;16.484;102.872;2023-03-02T03:26:03;25.40;59.30
18575;DHT22;9417;16.484;102.872;2023-03-02T03:28:12;25.50;59.50
18575;DHT22;9417;16.484;102.872;2023-03-02T03:30:19;25.50;59.70
18575;DHT22;9417;16.484;102.872;2023-03-02T03:32:27;25.60;59.30
18575;DHT22;9417;16.484;102.872;2023-03-02T03:34:40;25.60;60.00
18575;DHT22;9417;16.484;102.872;2023-03-02T03:36:54;25.60;60.40
18575;DHT22;9417;16.484;102.872;2023-03-02T03:39:10;25.50;59.60
18575;DHT22;9417;16.484;102.872;2023-03-02T03:41:18;25.60;60.10
18575;DHT22;9417;16.484;102.872;2023-03-02T03:43:26;25.70;59.90
18575;DHT22;9417;16.484;102.872;2023-03-02T03:45:34;25.80;57.10
18575;DHT22;9417;16.484;102.872;2023-03-02T03:47:41;25.90;56.90
18575;DHT22;9417;16.484;102.872;2023-03-02T03:49:48;25.90;56.90
18575;DHT22;9417;16.484;102.872;2023-03-02T03:51:56;26.10;57.90
18575;DHT22;9417;16.484;102.872;2023-03-02T03:54:04;26.20;57.30
18575;DHT22;9417;16.484;102.872;2023-03-02T03:56:14;26.30;58.00
18575;DHT22;9417;16.484;102.872;2023-03-02T03:58:21;26.40;56.80
18575;DHT22;9417;16.484;102.872;2023-03-02T04:00:31;26.50;56.30
18575;DHT22;9417;16.484;102.872;2023-03-02T04:02:43;26.60;52.70
18575;DHT22;9417;16.484;102.872;2023-03-02T04:04:50;26.60;53.40
18575;DHT22;9417;16.484;102.872;2023-03-02T04:06:57;26.60;53.00
18575;DHT22;9417;16.484;102.872;2023-03-02T04:09:05;26.70;52.90
18575;DHT22;9417;16.484;102.872;2023-03-02T04:11:12;26.80;52.60
18575;DHT22;9417;16.484;102.872;2023-03-02T04:13:20;26.90;53.20
18575;DHT22;9417;16.484;102.872;2023-03-02T04:15:29;27.00;52.20
18575;DHT22;9417;16.484;102.872;2023-03-02T04:17:36;27.20;52.80
18575;DHT22;9417;16.484;102.872;2023-03-02T04:19:43;27.30;52.30
18575;DHT22;9417;16.484;102.872;2023-03-02T04:21:52;27.40;52.00
18575;DHT22;9417;16.484;102.872;2023-03-02T04:23:59;27.60;50.30
18575;DHT22;9417;16.484;102.872;2023-03-02T04:26:06;27.60;50.70
18575;DHT22;9417;16.484;102.872;2023-03-02T04:28:13;27.60;51.30
18575;DHT22;9417;16.484;102.872;2023-03-02T04:30:23;27.70;51.70
18575;DHT22;9417;16.484;102.872;2023-03-02T04:32:32;27.80;50.90
18575;DHT22;9417;16.484;102.872;2023-03-02T04:34:40;27.90;49.00
18575;DHT22;9417;16.484;102.872;2023-03-02T04:36:47;27.80;50.00
18575;DHT22;9417;16.484;102.872;2023-03-02T04:38:54;27.70;49.30
18575;DHT22;9417;16.484;102.872;2023-03-02T04:41:01;27.70;49.40
18575;DHT22;9417;16.484;102.872;2023-03-02T04:43:08;27.80;50.90
18575;DHT22;9417;16.484;102.872;2023-03-02T04:45:15;27.90;50.70
18575;DHT22;9417;16.484;102.872;2023-03-02T04:47:22;28.00;49.80
18575;DHT22;9417;16.484;102.872;2023-03-02T04:49:31;28.00;48.10
18575;DHT22;9417;16.484;102.872;2023-03-02T04:51:40;28.00;49.90
18575;DHT22;9417;16.484;102.872;2023-03-02T04:53:47;28.00;48.60
18575;DHT22;9417;16.484;102.872;2023-03-02T04:55:54;28.20;48.60
18575;DHT22;9417;16.484;102.872;2023-03-02T04:58:01;28.20;47.40
18575;DHT22;9417;16.484;102.872;2023-03-02T05:00:09;28.20;48.90
18575;DHT22;9417;16.484;102.872;2023-03-02T05:02:17;28.30;48.20
18575;DHT22;9417;16.484;102.872;2023-03-02T05:04:28;28.40;49.30
18575;DHT22;9417;16.484;102.872;2023-03-02T05:06:37;28.30;48.40
18575;DHT22;9417;16.484;102.872;2023-03-02T05:08:44;28.30;48.40
18575;DHT22;9417;16.484;102.872;2023-03-02T05:10:51;28.30;49.60
18575;DHT22;9417;16.484;102.872;2023-03-02T05:12:58;28.40;47.50
18575;DHT22;9417;16.484;102.872;2023-03-02T05:15:09;28.40;49.00
18575;DHT22;9417;16.484;102.872;2023-03-02T05:17:22;28.40;48.80
18575;DHT22;9417;16.484;102.872;2023-03-02T05:19:29;28.40;47.40
18575;DHT22;9417;16.484;102.872;2023-03-02T05:21:37;28.60;46.10
18575;DHT22;9417;16.484;102.872;2023-03-02T05:23:46;28.60;48.10
18575;DHT22;9417;16.484;102.872;2023-03-02T05:25:54;28.70;46.60
18575;DHT22;9417;16.484;102.872;2023-03-02T05:28:01;28.80;46.00
18575;DHT22;9417;16.484;102.872;2023-03-02T05:30:09;28.90;46.40
18575;DHT22;9417;16.484;102.872;2023-03-02T05:32:16;28.90;47.30
18575;DHT22;9417;16.484;102.872;2023-03-02T05:34:23;29.00;46.30
18575;DHT22;9417;16.484;102.872;2023-03-02T05:36:30;29.10;43.90
18575;DHT22;9417;16.484;102.872;2023-03-02T05:38:40;29.20;46.10
18575;DHT22;9417;16.484;102.872;2023-03-02T05:40:47;29.30;45.70
18575;DHT22;9417;16.484;102.872;2023-03-02T05:42:55;29.30;45.50
18575;DHT22;9417;16.484;102.872;2023-03-02T05:45:02;29.30;45.90
18575;DHT22;9417;16.484;102.872;2023-03-02T05:47:09;29.30;45.10
18575;DHT22;9417;16.484;102.872;2023-03-02T05:49:16;29.20;44.50
18575;DHT22;9417;16.484;102.872;2023-03-02T05:51:23;29.20;45.80
18575;DHT22;9417;16.484;102.872;2023-03-02T05:53:29;29.20;44.80
18575;DHT22;9417;16.484;102.872;2023-03-02T05:55:42;29.20;45.50
18575;DHT22;9417;16.484;102.872;2023-03-02T05:57:50;29.10;45.60
18575;DHT22;9417;16.484;102.872;2023-03-02T05:59:58;29.10;45.50
18575;DHT22;9417;16.484;102.872;2023-03-02T06:02:14;29.10;45.00
18575;DHT22;9417;16.484;102.872;2023-03-02T06:04:21;29.20;45.10
18575;DHT22;9417;16.484;102.872;2023-03-02T06:06:28;29.30;45.40
18575;DHT22;9417;16.484;102.872;2023-03-02T06:08:36;29.50;46.00
18575;DHT22;9417;16.484;102.872;2023-03-02T06:10:46;29.70;45.40
18575;DHT22;9417;16.484;102.872;2023-03-02T06:12:54;29.80;43.90
18575;DHT22;9417;16.484;102.872;2023-03-02T06:15:01;29.90;44.10
18575;DHT22;9417;16.484;102.872;2023-03-02T06:17:08;30.00;44.10
18575;DHT22;9417;16.484;102.872;2023-03-02T06:19:16;30.00;43.90
18575;DHT22;9417;16.484;102.872;2023-03-02T06:21:22;30.00;44.00
18575;DHT22;9417;16.484;102.872;2023-03-02T06:23:30;30.10;44.90
18575;DHT22;9417;16.484;102.872;2023-03-02T06:25:38;30.10;43.30
18575;DHT22;9417;16.484;102.872;2023-03-02T06:27:53;30.20;43.20
18575;DHT22;9417;16.484;102.872;2023-03-02T06:30:00;30.30;42.60
18575;DHT22;9417;16.484;102.872;2023-03-02T06:32:07;30.30;42.40
18575;DHT22;9417;16.484;102.872;2023-03-02T06:34:14;30.20;42.40
18575;DHT22;9417;16.484;102.872;2023-03-02T06:36:21;30.10;42.70
18575;DHT22;9417;16.484;102.872;2023-03-02T06:38:28;30.10;43.60
18575;DHT22;9417;16.484;102.872;2023-03-02T06:40:36;30.10;44.50
18575;DHT22;9417;16.484;102.872;2023-03-02T06:42:42;30.20;43.30
18575;DHT22;9417;16.484;102.872;2023-03-02T06:44:54;30.30;42.90
18575;DHT22;9417;16.484;102.872;2023-03-02T06:47:01;30.40;41.00
18575;DHT22;9417;16.484;102.872;2023-03-02T06:49:09;30.40;41.10
18575;DHT22;9417;16.484;102.872;2023-03-02T06:51:19;30.50;41.20
18575;DHT22;9417;16.484;102.872;2023-03-02T06:53:26;30.60;41.50
18575;DHT22;9417;16.484;102.872;2023-03-02T06:55:33;30.60;40.20
18575;DHT22;9417;16.484;102.872;2023-03-02T06:57:40;30.70;40.60
18575;DHT22;9417;16.484;102.872;2023-03-02T06:59:47;30.70;40.70
18575;DHT22;9417;16.484;102.872;2023-03-02T07:01:56;30.70;40.30
18575;DHT22;9417;16.484;102.872;2023-03-02T07:04:03;30.70;39.30
18575;DHT22;9417;16.484;102.872;2023-03-02T07:06:11;30.70;38.90
18575;DHT22;9417;16.484;102.872;2023-03-02T07:08:18;30.60;39.40
18575;DHT22;9417;16.484;102.872;2023-03-02T07:10:26;30.60;40.30
18575;DHT22;9417;16.484;102.872;2023-03-02T07:12:33;30.60;40.50
18575;DHT22;9417;16.484;102.872;2023-03-02T07:14:40;30.70;39.30
18575;DHT22;9417;16.484;102.872;2023-03-02T07:16:46;30.80;40.00
18575;DHT22;9417;16.484;102.872;2023-03-02T07:18:55;31.00;39.80
18575;DHT22;9417;16.484;102.872;2023-03-02T07:21:02;31.10;39.50
18575;DHT22;9417;16.484;102.872;2023-03-02T07:23:09;31.20;39.60
18575;DHT22;9417;16.484;102.872;2023-03-02T07:25:16;31.20;39.10
18575;DHT22;9417;16.484;102.872;2023-03-02T07:27:23;31.10;36.60
18575;DHT22;9417;16.484;102.872;2023-03-02T07:29:30;31.00;38.00
18575;DHT22;9417;16.484;102.872;2023-03-02T07:31:37;31.00;38.20
18575;DHT22;9417;16.484;102.872;2023-03-02T07:33:47;30.90;38.70
18575;DHT22;9417;16.484;102.872;2023-03-02T07:35:56;30.90;39.50
18575;DHT22;9417;16.484;102.872;2023-03-02T07:38:03;31.00;38.50
18575;DHT22;9417;16.484;102.872;2023-03-02T07:40:12;31.00;38.60
18575;DHT22;9417;16.484;102.872;2023-03-02T07:42:19;31.10;37.50
18575;DHT22;9417;16.484;102.872;2023-03-02T07:44:31;31.10;38.30
18575;DHT22;9417;16.484;102.872;2023-03-02T07:46:38;31.20;38.70
18575;DHT22;9417;16.484;102.872;2023-03-02T07:48:45;31.30;38.20
18575;DHT22;9417;16.484;102.872;2023-03-02T07:50:59;31.30;38.20
18575;DHT22;9417;16.484;102.872;2023-03-02T07:53:06;31.40;38.70
18575;DHT22;9417;16.484;102.872;2023-03-02T07:55:13;31.40;38.90
18575;DHT22;9417;16.484;102.872;2023-03-02T07:57:20;31.50;38.30
18575;DHT22;9417;16.484;102.872;2023-03-02T07:59:27;31.50;38.20
18575;DHT22;9417;16.484;102.872;2023-03-02T08:01:34;31.50;37.80
18575;DHT22;9417;16.484;102.872;2023-03-02T08:03:41;31.40;37.30
18575;DHT22;9417;16.484;102.872;2023-03-02T08:05:48;31.30;37.30
18575;DHT22;9417;16.484;102.872;2023-03-02T08:07:57;31.20;38.10
18575;DHT22;9417;16.484;102.872;2023-03-02T08:10:04;31.20;38.90
18575;DHT22;9417;16.484;102.872;2023-03-02T08:12:11;31.30;36.90
18575;DHT22;9417;16.484;102.872;2023-03-02T08:14:18;31.30;37.50
18575;DHT22;9417;16.484;102.872;2023-03-02T08:16:25;31.30;38.10
18575;DHT22;9417;16.484;102.872;2023-03-02T08:18:33;31.30;37.10
18575;DHT22;9417;16.484;102.872;2023-03-02T08:20:40;31.30;36.60
18575;DHT22;9417;16.484;102.872;2023-03-02T08:22:47;31.20;38.00
18575;DHT22;9417;16.484;102.872;2023-03-02T08:24:55;31.20;38.50
18575;DHT22;9417;16.484;102.872;2023-03-02T08:27:02;31.20;37.40
18575;DHT22;9417;16.484;102.872;2023-03-02T08:29:10;31.10;37.70
18575;DHT22;9417;16.484;102.872;2023-03-02T08:31:16;31.10;37.50
18575;DHT22;9417;16.484;102.872;2023-03-02T08:33:23;31.20;37.40
18575;DHT22;9417;16.484;102.872;2023-03-02T08:35:30;31.20;36.00
18575;DHT22;9417;16.484;102.872;2023-03-02T08:37:37;31.20;37.20
18575;DHT22;9417;16.484;102.872;2023-03-02T08:39:44;31.20;36.70
18575;DHT22;9417;16.484;102.872;2023-03-02T08:41:53;31.20;37.10
18575;DHT22;9417;16.484;102.872;2023-03-02T08:44:00;31.20;37.40
18575;DHT22;9417;16.484;102.872;2023-03-02T08:46:08;31.30;37.30
18575;DHT22;9417;16.484;102.872;2023-03-02T08:48:16;31.30;37.40
18575;DHT22;9417;16.484;102.872;2023-03-02T08:50:23;31.40;37.40
18575;DHT22;9417;16.484;102.872;2023-03-02T08:52:32;31.40;37.10
18575;DHT22;9417;16.484;102.872;2023-03-02T08:54:39;31.40;36.90
18575;DHT22;9417;16.484;102.872;2023-03-02T08:56:46;31.40;37.00
18575;DHT22;9417;16.484;102.872;2023-03-02T08:58:57;31.40;36.90
18575;DHT22;9417;16.484;102.872;2023-03-02T09:01:05;31.40;37.10
18575;DHT22;9417;16.484;102.872;2023-03-02T09:03:12;31.40;36.40
18575;DHT22;9417;16.484;102.872;2023-03-02T09:05:19;31.30;35.80
18575;DHT22;9417;16.484;102.872;2023-03-02T09:07:26;31.30;36.50
18575;DHT22;9417;16.484;102.872;2023-03-02T09:09:34;31.30;37.10
18575;DHT22;9417;16.484;102.872;2023-03-02T09:11:42;31.30;36.90
18575;DHT22;9417;16.484;102.872;2023-03-02T09:13:49;31.20;37.30
18575;DHT22;9417;16.484;102.872;2023-03-02T09:15:58;31.20;37.30
18575;DHT22;9417;16.484;102.872;2023-03-02T09:18:06;31.10;37.20
18575;DHT22;9417;16.484;102.872;2023-03-02T09:20:13;31.10;37.00
18575;DHT22;9417;16.484;102.872;2023-03-02T09:22:20;31.00;37.50
18575;DHT22;9417;16.484;102.872;2023-03-02T09:24:27;31.00;38.10
18575;DHT22;9417;16.484;102.872;2023-03-02T09:26:33;31.00;37.90
18575;DHT22;9417;16.484;102.872;2023-03-02T09:28:41;31.00;38.20
18575;DHT22;9417;16.484;102.872;2023-03-02T09:30:49;30.90;38.10
18575;DHT22;9417;16.484;102.872;2023-03-02T09:32:58;30.90;38.00
18575;DHT22;9417;16.484;102.872;2023-03-02T09:35:06;30.90;38.40
18575;DHT22;9417;16.484;102.872;2023-03-02T09:37:13;30.90;38.00
18575;DHT22;9417;16.484;102.872;2023-03-02T09:39:20;30.80;37.60
18575;DHT22;9417;16.484;102.872;2023-03-02T09:44:35;30.80;36.90
18575;DHT22;9417;16.484;102.872;2023-03-02T09:46:47;30.70;36.90
18575;DHT22;9417;16.484;102.872;2023-03-02T09:49:11;30.70;37.20
18575;DHT22;9417;16.484;102.872;2023-03-02T09:51:33;30.60;37.00
18575;DHT22;9417;16.484;102.872;2023-03-02T09:53:43;30.60;37.80
18575;DHT22;9417;16.484;102.872;2023-03-02T09:55:54;30.60;36.50
18575;DHT22;9417;16.484;102.872;2023-03-02T09:58:06;30.50;38.20
18575;DHT22;9417;16.484;102.872;2023-03-02T10:00:17;30.50;38.00
18575;DHT22;9417;16.484;102.872;2023-03-02T10:02:28;30.50;38.10
18575;DHT22;9417;16.484;102.872;2023-03-02T10:04:41;30.50;38.40
18575;DHT22;9417;16.484;102.872;2023-03-02T10:06:54;30.40;37.80
18575;DHT22;9417;16.484;102.872;2023-03-02T10:09:02;30.40;38.40
18575;DHT22;9417;16.484;102.872;2023-03-02T10:11:24;30.30;39.20
18575;DHT22;9417;16.484;102.872;2023-03-02T10:13:38;30.30;39.00
18575;DHT22;9417;16.484;102.872;2023-03-02T10:15:59;30.20;39.70
18575;DHT22;9417;16.484;102.872;2023-03-02T10:18:14;30.10;39.90
18575;DHT22;9417;16.484;102.872;2023-03-02T10:20:28;30.00;39.90
18575;DHT22;9417;16.484;102.872;2023-03-02T10:22:39;30.00;40.10
18575;DHT22;9417;16.484;102.872;2023-03-02T10:24:53;29.90;40.00
18575;DHT22;9417;16.484;102.872;2023-03-02T10:27:15;29.90;40.20
18575;DHT22;9417;16.484;102.872;2023-03-02T10:31:57;29.90;40.60
18575;DHT22;9417;16.484;102.872;2023-03-02T10:34:07;29.80;40.70
18575;DHT22;9417;16.484;102.872;2023-03-02T10:36:21;29.70;40.80
18575;DHT22;9417;16.484;102.872;2023-03-02T10:38:28;29.70;41.20
18575;DHT22;9417;16.484;102.872;2023-03-02T10:40:40;29.60;41.30
18575;DHT22;9417;16.484;102.872;2023-03-02T10:42:47;29.60;41.40
18575;DHT22;9417;16.484;102.872;2023-03-02T10:44:56;29.50;41.30
18575;DHT22;9417;16.484;102.872;2023-03-02T10:47:05;29.50;41.30
18575;DHT22;9417;16.484;102.872;2023-03-02T10:49:28;29.50;41.40
18575;DHT22;9417;16.484;102.872;2023-03-02T10:51:37;29.40;41.30
18575;DHT22;9417;16.484;102.872;2023-03-02T10:53:44;29.40;41.70
18575;DHT22;9417;16.484;102.872;2023-03-02T10:55:52;29.40;41.80
18575;DHT22;9417;16.484;102.872;2023-03-02T10:58:02;29.30;41.80
18575;DHT22;9417;16.484;102.872;2023-03-02T11:00:16;29.20;42.00
18575;DHT22;9417;16.484;102.872;2023-03-02T11:02:25;29.20;41.90
18575;DHT22;9417;16.484;102.872;2023-03-02T11:04:32;29.20;42.10
18575;DHT22;9417;16.484;102.872;2023-03-02T11:06:41;29.10;42.10
18575;DHT22;9417;16.484;102.872;2023-03-02T11:09:02;29.10;42.10
18575;DHT22;9417;16.484;102.872;2023-03-02T11:11:21;29.00;42.00
18575;DHT22;9417;16.484;102.872;2023-03-02T11:13:29;29.00;41.90
18575;DHT22;9417;16.484;102.872;2023-03-02T11:15:40;28.90;42.30
18575;DHT22;9417;16.484;102.872;2023-03-02T11:17:51;28.90;42.30
18575;DHT22;9417;16.484;102.872;2023-03-02T11:20:00;28.90;42.40
18575;DHT22;9417;16.484;102.872;2023-03-02T11:22:21;28.80;42.40
18575;DHT22;9417;16.484;102.872;2023-03-02T11:24:34;28.80;42.40
18575;DHT22;9417;16.484;102.872;2023-03-02T11:26:44;28.70;42.60
18575;DHT22;9417;16.484;102.872;2023-03-02T11:28:58;28.70;42.80
18575;DHT22;9417;16.484;102.872;2023-03-02T11:31:14;28.60;42.80
18575;DHT22;9417;16.484;102.872;2023-03-02T11:33:26;28.60;43.00
18575;DHT22;9417;16.484;102.872;2023-03-02T11:35:39;28.50;43.20
18575;DHT22;9417;16.484;102.872;2023-03-02T11:37:51;28.50;43.30
18575;DHT22;9417;16.484;102.872;2023-03-02T11:40:04;28.40;43.80
18575;DHT22;9417;16.484;102.872;2023-03-02T11:42:20;28.40;44.10
18575;DHT22;9417;16.484;102.872;2023-03-02T11:44:27;28.30;45.10
18575;DHT22;9417;16.484;102.872;2023-03-02T11:46:35;28.30;45.60
18575;DHT22;9417;16.484;102.872;2023-03-02T11:48:43;28.20;46.20
18575;DHT22;9417;16.484;102.872;2023-03-02T11:50:55;28.20;46.60
18575;DHT22;9417;16.484;102.872;2023-03-02T11:53:09;28.10;46.50
18575;DHT22;9417;16.484;102.872;2023-03-02T11:55:19;28.00;47.20
18575;DHT22;9417;16.484;102.872;2023-03-02T11:57:28;28.00;47.90
18575;DHT22;9417;16.484;102.872;2023-03-02T11:59:38;27.90;48.30
18575;DHT22;9417;16.484;102.872;2023-03-02T12:01:48;27.80;49.00
18575;DHT22;9417;16.484;102.872;2023-03-02T12:04:07;27.60;48.10
18575;DHT22;9417;16.484;102.872;2023-03-02T12:06:33;27.50;50.00
18575;DHT22;9417;16.484;102.872;2023-03-02T12:08:44;27.40;52.10
18575;DHT22;9417;16.484;102.872;2023-03-02T12:10:57;27.30;51.30
18575;DHT22;9417;16.484;102.872;2023-03-02T12:13:14;27.20;51.40
18575;DHT22;9417;16.484;102.872;2023-03-02T12:15:35;27.20;52.30
18575;DHT22;9417;16.484;102.872;2023-03-02T12:17:43;27.10;52.70
18575;DHT22;9417;16.484;102.872;2023-03-02T12:19:52;27.00;52.50
18575;DHT22;9417;16.484;102.872;2023-03-02T12:22:00;27.00;52.60
18575;DHT22;9417;16.484;102.872;2023-03-02T12:24:23;27.00;52.70
18575;DHT22;9417;16.484;102.872;2023-03-02T12:26:33;26.90;53.80
18575;DHT22;9417;16.484;102.872;2023-03-02T12:28:57;26.90;53.00
18575;DHT22;9417;16.484;102.872;2023-03-02T12:31:08;26.90;52.80
18575;DHT22;9417;16.484;102.872;2023-03-02T12:33:20;26.80;52.10
18575;DHT22;9417;16.484;102.872;2023-03-02T12:35:29;26.80;51.80
18575;DHT22;9417;16.484;102.872;2023-03-02T12:37:43;26.80;51.20
18575;DHT22;9417;16.484;102.872;2023-03-02T12:42:48;26.80;52.50
18575;DHT22;9417;16.484;102.872;2023-03-02T12:44:59;26.80;51.10
18575;DHT22;9417;16.484;102.872;2023-03-02T12:47:15;26.80;51.60
18575;DHT22;9417;16.484;102.872;2023-03-02T12:49:41;26.80;51.90
18575;DHT22;9417;16.484;102.872;2023-03-02T12:51:52;26.70;51.10
18575;DHT22;9417;16.484;102.872;2023-03-02T12:54:03;26.70;51.00
18575;DHT22;9417;16.484;102.872;2023-03-02T12:56:21;26.70;51.10
18575;DHT22;9417;16.484;102.872;2023-03-02T12:58:29;26.70;50.00
18575;DHT22;9417;16.484;102.872;2023-03-02T13:00:37;26.60;50.00
18575;DHT22;9417;16.484;102.872;2023-03-02T13:02:47;26.70;50.40
18575;DHT22;9417;16.484;102.872;2023-03-02T13:04:56;26.70;50.50
18575;DHT22;9417;16.484;102.872;2023-03-02T13:07:04;26.70;50.50
18575;DHT22;9417;16.484;102.872;2023-03-02T13:09:13;26.70;50.40
18575;DHT22;9417;16.484;102.872;2023-03-02T13:11:26;26.70;50.30
18575;DHT22;9417;16.484;102.872;2023-03-02T13:13:36;26.60;49.90
18575;DHT22;9417;16.484;102.872;2023-03-02T13:15:48;26.60;49.40
18575;DHT22;9417;16.484;102.872;2023-03-02T13:17:57;26.70;48.80
18575;DHT22;9417;16.484;102.872;2023-03-02T13:20:05;26.70;48.80
18575;DHT22;9417;16.484;102.872;2023-03-02T13:22:13;26.70;48.70
18575;DHT22;9417;16.484;102.872;2023-03-02T13:24:31;26.70;48.50
18575;DHT22;9417;16.484;102.872;2023-03-02T13:26:41;26.70;48.20
18575;DHT22;9417;16.484;102.872;2023-03-02T13:28:48;26.70;48.00
18575;DHT22;9417;16.484;102.872;2023-03-02T13:31:16;26.70;48.00
18575;DHT22;9417;16.484;102.872;2023-03-02T13:33:27;26.70;47.90